Time;durP1;ratioP1;P1;durP2;ratioP2;P2;SDS_P1;SDS_P2;PMS_P1;PMS_P2;Temp;Humidity;BMP_temperature;BMP_pressure;BME280_temperature;BME280_humidity;BME280_pressure;Samples;Min_cycle;Max_cycle;Signal;HPM_P1;HPM_P2
2024/02/04 00:01:57;;;;;;;4.03;2.40;;;9.30;49.30;;;;;;5074950;28;20277;-71
2024/02/04 00:04:27;;;;;;;3.70;2.35;;;9.30;49.50;;;;;;5075465;28;20194;-71
2024/02/04 00:06:55;;;;;;;4.72;3.08;;;9.30;50.30;;;;;;5095229;28;20185;-71
2024/02/04 00:09:28;;;;;;;6.05;3.75;;;9.20;50.30;;;;;;5095082;28;20274;-71
2024/02/04 00:11:58;;;;;;;13.93;10.70;;;9.20;50.50;;;;;;5094832;28;20173;-71
2024/02/04 00:14:27;;;;;;;11.45;6.55;;;9.20;51.30;;;;;;5094932;28;20212;-71
2024/02/04 00:16:55;;;;;;;5.97;3.70;;;9.20;51.00;;;;;;5088501;28;20668;-71
2024/02/04 00:19:30;;;;;;;5.32;3.17;;;9.10;52.10;;;;;;5087940;28;20690;-70
2024/02/04 00:22:03;;;;;;;4.85;3.22;;;9.10;52.10;;;;;;5086769;28;20174;-70
2024/02/04 00:24:35;;;;;;;4.07;3.22;;;9.10;52.50;;;;;;5094643;28;20578;-70
2024/02/04 00:27:07;;;;;;;4.30;2.85;;;9.10;52.90;;;;;;5094159;28;20223;-70
2024/02/04 00:29:37;;;;;;;4.35;2.95;;;9.20;53.30;;;;;;5094677;28;20169;-71
2024/02/04 00:32:08;;;;;;;6.35;3.03;;;9.20;53.70;;;;;;5094451;28;20632;-71
2024/02/04 00:34:41;;;;;;;5.18;3.05;;;9.20;53.70;;;;;;5093986;28;20173;-70
2024/02/04 00:37:10;;;;;;;5.40;3.92;;;9.30;53.90;;;;;;5093822;28;20177;-70
2024/02/04 00:39:39;;;;;;;5.43;3.30;;;9.30;53.50;;;;;;5094168;28;20190;-70
2024/02/04 00:42:08;;;;;;;9.60;3.88;;;9.40;53.80;;;;;;5094094;28;20194;-70
2024/02/04 00:44:39;;;;;;;5.53;3.70;;;9.40;53.70;;;;;;5093827;28;20673;-70
2024/02/04 00:47:07;;;;;;;5.25;4.28;;;9.40;54.20;;;;;;5093956;28;20190;-70
2024/02/04 00:49:34;;;;;;;8.85;3.42;;;9.40;54.60;;;;;;5093660;28;20181;-70
2024/02/04 00:52:02;;;;;;;5.32;3.60;;;9.40;54.50;;;;;;5093887;28;20200;-71
2024/02/04 00:54:34;;;;;;;4.88;3.60;;;9.40;54.80;;;;;;5094496;28;20525;-71
2024/02/04 00:57:02;;;;;;;5.65;3.67;;;9.30;54.60;;;;;;5094099;28;20193;-71
2024/02/04 00:59:32;;;;;;;6.13;3.80;;;9.40;54.90;;;;;;5094304;28;20272;-71
2024/02/04 01:02:06;;;;;;;6.60;3.92;;;9.40;55.10;;;;;;5094279;28;20512;-71
2024/02/04 01:04:34;;;;;;;4.38;3.30;;;9.30;55.30;;;;;;5094300;28;20250;-70
2024/02/04 01:07:04;;;;;;;5.15;3.65;;;9.30;55.40;;;;;;5094339;28;20189;-72
2024/02/04 01:09:36;;;;;;;6.47;3.88;;;9.40;55.50;;;;;;5094187;28;20625;-71
2024/02/04 01:12:06;;;;;;;6.47;3.22;;;9.40;55.60;;;;;;5093829;28;20623;-72
2024/02/04 01:14:38;;;;;;;6.45;4.22;;;9.40;55.90;;;;;;5094428;28;20182;-71
2024/02/04 01:17:08;;;;;;;7.20;3.58;;;9.30;55.80;;;;;;5094475;28;20526;-71
2024/02/04 01:19:41;;;;;;;5.05;3.30;;;9.30;55.60;;;;;;5094733;28;20558;-71
2024/02/04 01:22:11;;;;;;;6.60;3.72;;;9.30;55.70;;;;;;5094444;28;20262;-71
2024/02/04 01:24:43;;;;;;;5.43;3.80;;;9.30;56.10;;;;;;5094491;28;20546;-71
2024/02/04 01:27:23;;;;;;;4.35;3.22;;;9.30;55.90;;;;;;5094046;28;20226;-71
2024/02/04 01:29:51;;;;;;;4.28;2.95;;;9.30;55.80;;;;;;5093990;28;20181;-71
2024/02/04 01:32:25;;;;;;;7.25;3.67;;;9.30;55.80;;;;;;5094110;28;20185;-71
2024/02/04 01:34:54;;;;;;;4.95;3.42;;;9.30;56.20;;;;;;5093766;28;20177;-71
2024/02/04 01:37:21;;;;;;;6.63;3.70;;;9.30;56.60;;;;;;5093692;28;20276;-71
2024/02/04 01:39:52;;;;;;;5.32;3.90;;;9.30;56.50;;;;;;5093036;28;20182;-71
2024/02/04 01:42:34;;;;;;;5.05;3.55;;;9.30;56.80;;;;;;5093902;28;20265;-71
2024/02/04 01:45:07;;;;;;;5.50;3.85;;;9.30;57.00;;;;;;5093867;28;20292;-71
2024/02/04 01:47:36;;;;;;;6.07;3.88;;;9.20;56.90;;;;;;5094024;28;20557;-71
2024/02/04 01:50:06;;;;;;;4.63;3.45;;;9.20;57.10;;;;;;5093853;28;20511;-71
2024/02/04 01:52:38;;;;;;;5.03;3.45;;;9.20;57.60;;;;;;5093604;28;20184;-72
2024/02/04 01:55:07;;;;;;;5.50;3.55;;;9.20;57.40;;;;;;5093578;28;20188;-71
2024/02/04 01:57:39;;;;;;;5.82;3.60;;;9.20;57.70;;;;;;5094105;28;20185;-71
2024/02/04 02:00:09;;;;;;;4.35;2.70;;;9.20;57.70;;;;;;5093575;28;20232;-71
2024/02/04 02:02:41;;;;;;;6.10;4.13;;;9.20;57.60;;;;;;5093822;28;20223;-71
2024/02/04 02:05:10;;;;;;;4.65;3.60;;;9.30;58.00;;;;;;5093713;28;20202;-71
2024/02/04 02:07:37;;;;;;;4.97;3.35;;;9.20;57.60;;;;;;5093695;28;20185;-71
2024/02/04 02:10:07;;;;;;;7.43;4.70;;;9.20;58.00;;;;;;5093079;28;20188;-71
2024/02/04 02:12:40;;;;;;;7.30;4.88;;;9.10;58.20;;;;;;5093421;28;20191;-72
2024/02/04 02:15:19;;;;;;;8.02;3.28;;;9.20;58.40;;;;;;5093340;28;20209;-71
2024/02/04 02:17:54;;;;;;;4.20;3.00;;;9.20;58.30;;;;;;5093316;28;20224;-71
2024/02/04 02:20:26;;;;;;;5.82;3.38;;;9.20;58.10;;;;;;5093361;28;20256;-72
2024/02/04 02:23:07;;;;;;;4.85;3.30;;;9.20;58.20;;;;;;5093207;28;20169;-71
2024/02/04 02:25:43;;;;;;;4.65;3.58;;;9.20;58.20;;;;;;5093460;28;20193;-71
2024/02/04 02:28:13;;;;;;;4.47;3.45;;;9.20;58.60;;;;;;5092754;28;20181;-72
2024/02/04 02:30:40;;;;;;;6.40;4.28;;;9.20;58.40;;;;;;5092740;28;20181;-71
2024/02/04 02:33:09;;;;;;;11.27;3.55;;;9.20;58.60;;;;;;5093444;28;20273;-71
2024/02/04 02:35:37;;;;;;;5.47;3.85;;;9.20;58.70;;;;;;5093052;28;20232;-72
2024/02/04 02:38:12;;;;;;;6.10;3.80;;;9.20;59.20;;;;;;5093284;28;20185;-71
2024/02/04 02:40:50;;;;;;;5.20;4.13;;;9.20;59.00;;;;;;5093067;28;20177;-71
2024/02/04 02:43:17;;;;;;;6.18;3.40;;;9.10;59.10;;;;;;5093140;28;20174;-72
2024/02/04 02:45:48;;;;;;;5.40;4.03;;;9.10;59.40;;;;;;5092852;28;20210;-71
2024/02/04 02:48:16;;;;;;;5.90;3.60;;;9.10;59.20;;;;;;5093207;28;20182;-71
2024/02/04 02:50:43;;;;;;;6.60;3.80;;;9.10;59.10;;;;;;5095600;28;20205;-72
2024/02/04 02:53:10;;;;;;;5.55;3.55;;;9.10;59.10;;;;;;5096846;28;20188;-71
2024/02/04 02:55:41;;;;;;;6.85;3.60;;;9.10;59.30;;;;;;5097110;28;20196;-71
2024/02/04 02:58:10;;;;;;;5.60;3.17;;;9.00;59.10;;;;;;5097485;28;20177;-72
2024/02/04 03:00:37;;;;;;;5.82;3.55;;;9.00;59.10;;;;;;5096651;28;20234;-71
2024/02/04 03:03:06;;;;;;;4.57;3.58;;;8.90;59.20;;;;;;5096865;28;20239;-72
2024/02/04 03:05:34;;;;;;;6.45;3.80;;;8.90;59.40;;;;;;5097038;28;20217;-71
2024/02/04 03:08:03;;;;;;;5.35;3.75;;;8.90;59.40;;;;;;5096934;28;20272;-71
2024/02/04 03:10:30;;;;;;;4.35;3.30;;;8.90;59.80;;;;;;5096736;28;20272;-71
2024/02/04 03:12:57;;;;;;;4.75;4.13;;;8.90;59.90;;;;;;5096786;28;20581;-71
2024/02/04 03:15:25;;;;;;;5.15;3.95;;;8.90;60.00;;;;;;5096108;28;20228;-72
2024/02/04 03:17:55;;;;;;;5.65;3.92;;;8.90;60.50;;;;;;5096101;28;20708;-71
2024/02/04 03:20:22;;;;;;;6.97;4.05;;;8.90;61.20;;;;;;5096467;28;20193;-70
2024/02/04 03:22:50;;;;;;;6.55;4.70;;;8.90;61.40;;;;;;5096520;28;20541;-71
2024/02/04 03:25:17;;;;;;;5.15;3.00;;;9.00;61.60;;;;;;5096645;28;20210;-72
2024/02/04 03:27:45;;;;;;;4.75;3.45;;;8.90;61.40;;;;;;5096117;28;20181;-72
2024/02/04 03:30:12;;;;;;;5.50;3.63;;;9.00;61.80;;;;;;5077818;28;20369;-71
2024/02/04 03:32:41;;;;;;;5.88;4.15;;;8.90;61.70;;;;;;5075576;28;20182;-70
2024/02/04 03:35:09;;;;;;;6.28;3.80;;;8.90;61.90;;;;;;5075789;28;20232;-71
2024/02/04 03:37:37;;;;;;;4.63;3.10;;;9.00;62.10;;;;;;5075728;28;20197;-72
2024/02/04 03:40:13;;;;;;;5.50;3.78;;;9.00;62.10;;;;;;5075727;28;20265;-71
2024/02/04 03:42:43;;;;;;;4.88;3.45;;;9.00;62.00;;;;;;5075670;28;20170;-71
2024/02/04 03:45:10;;;;;;;5.80;3.58;;;9.00;61.80;;;;;;5075680;28;20226;-71
2024/02/04 03:47:41;;;;;;;6.20;4.15;;;9.00;61.80;;;;;;5075524;28;20186;-71
2024/02/04 03:50:10;;;;;;;5.38;3.28;;;9.10;62.00;;;;;;5075946;28;20558;-72
2024/02/04 03:52:38;;;;;;;6.78;4.20;;;9.10;62.10;;;;;;5093033;28;20177;-71
2024/02/04 03:55:06;;;;;;;8.05;4.20;;;9.10;62.20;;;;;;5095965;28;20193;-72
2024/02/04 03:57:34;;;;;;;7.82;3.72;;;9.10;62.00;;;;;;5082587;28;20694;-71
2024/02/04 04:00:01;;;;;;;5.60;3.40;;;9.10;62.10;;;;;;5075263;28;20196;-72
2024/02/04 04:02:30;;;;;;;4.65;3.50;;;9.10;62.10;;;;;;5075201;28;20263;-71
2024/02/04 04:05:12;;;;;;;5.32;3.75;;;9.10;62.20;;;;;;5075566;28;20190;-71
2024/02/04 04:07:40;;;;;;;4.47;3.17;;;9.10;62.10;;;;;;5075515;28;20174;-72
2024/02/04 04:10:08;;;;;;;5.50;3.38;;;9.10;62.10;;;;;;5075058;28;20671;-72
2024/02/04 04:12:37;;;;;;;4.15;3.17;;;9.10;62.20;;;;;;5089790;28;20185;-72
2024/02/04 04:15:09;;;;;;;3.90;2.55;;;9.10;61.90;;;;;;5095511;28;20280;-72
2024/02/04 04:17:51;;;;;;;5.15;3.28;;;9.10;61.80;;;;;;5095467;28;20562;-71
2024/02/04 04:20:20;;;;;;;4.80;3.55;;;9.10;62.20;;;;;;5095600;28;20679;-71
2024/02/04 04:22:50;;;;;;;5.00;3.42;;;9.00;62.20;;;;;;5094944;28;20211;-72
2024/02/04 04:25:19;;;;;;;4.35;2.97;;;9.00;62.10;;;;;;5095409;28;20214;-72
2024/02/04 04:27:48;;;;;;;4.10;2.67;;;9.00;62.50;;;;;;5094120;28;20635;-72
2024/02/04 04:30:17;;;;;;;6.63;3.50;;;9.00;62.60;;;;;;5095094;28;20181;-71
2024/02/04 04:32:44;;;;;;;4.40;3.33;;;9.00;62.60;;;;;;5095146;28;20190;-71
2024/02/04 04:35:11;;;;;;;12.98;3.22;;;8.90;62.60;;;;;;5095088;28;20193;-71
2024/02/04 04:37:41;;;;;;;4.90;3.20;;;9.00;62.80;;;;;;5095051;28;20188;-71
2024/02/04 04:40:16;;;;;;;5.65;3.58;;;9.00;62.80;;;;;;5094657;28;20523;-71
2024/02/04 04:42:43;;;;;;;5.38;3.20;;;9.10;62.50;;;;;;5094766;28;20273;-72
2024/02/04 04:45:11;;;;;;;4.68;2.63;;;9.10;62.50;;;;;;5094750;28;20626;-71
2024/02/04 04:47:44;;;;;;;4.93;3.20;;;9.00;62.20;;;;;;5094829;28;20213;-72
2024/02/04 04:50:13;;;;;;;5.68;3.35;;;9.00;62.50;;;;;;5094954;28;20176;-71
2024/02/04 04:52:41;;;;;;;5.10;3.33;;;9.00;63.80;;;;;;5094389;28;20205;-72
2024/02/04 04:55:09;;;;;;;4.90;3.30;;;9.00;62.90;;;;;;5081738;28;20186;-72
2024/02/04 04:57:37;;;;;;;5.60;4.40;;;9.00;63.00;;;;;;5074314;28;20198;-72
2024/02/04 05:00:09;;;;;;;6.88;4.32;;;9.00;63.30;;;;;;5091145;28;20588;-71
2024/02/04 05:02:38;;;;;;;5.78;3.35;;;9.00;63.00;;;;;;5094308;28;20217;-71
2024/02/04 05:05:07;;;;;;;4.50;3.97;;;9.00;63.60;;;;;;5094559;28;20541;-72
2024/02/04 05:07:36;;;;;;;5.35;3.47;;;9.00;63.60;;;;;;5079885;28;20212;-72
2024/02/04 05:10:05;;;;;;;4.38;2.90;;;9.10;63.80;;;;;;5074220;28;20186;-71
2024/02/04 05:12:36;;;;;;;5.55;4.03;;;9.10;63.50;;;;;;5074219;28;20258;-72
2024/02/04 05:15:03;;;;;;;6.15;3.33;;;9.00;63.30;;;;;;5073290;28;20228;-72
2024/02/04 05:17:37;;;;;;;4.78;3.25;;;9.00;63.70;;;;;;5073454;28;20186;-72
2024/02/04 05:20:10;;;;;;;4.47;3.05;;;9.00;63.80;;;;;;5074106;28;20277;-71
2024/02/04 05:22:38;;;;;;;7.57;4.13;;;9.00;63.70;;;;;;5090727;28;20181;-72
2024/02/04 05:25:08;;;;;;;4.97;3.50;;;9.00;63.80;;;;;;5094242;28;20185;-72
2024/02/04 05:27:38;;;;;;;5.60;3.45;;;9.10;63.50;;;;;;5081021;28;20209;-71
2024/02/04 05:30:06;;;;;;;5.13;3.80;;;9.00;63.30;;;;;;5073955;28;20190;-72
2024/02/04 05:32:34;;;;;;;4.90;3.00;;;9.00;63.90;;;;;;5073625;28;20285;-71
2024/02/04 05:35:01;;;;;;;5.03;3.30;;;9.00;63.30;;;;;;5073669;28;20186;-72
2024/02/04 05:37:30;;;;;;;5.35;3.70;;;9.00;63.30;;;;;;5073493;28;20197;-71
2024/02/04 05:39:58;;;;;;;4.72;3.47;;;8.90;63.50;;;;;;5073453;28;20276;-71
2024/02/04 05:42:27;;;;;;;6.10;4.07;;;8.90;63.70;;;;;;5073784;28;20185;-72
2024/02/04 05:44:56;;;;;;;5.43;3.60;;;8.90;63.70;;;;;;5073427;28;20202;-71
2024/02/04 05:47:23;;;;;;;6.00;3.78;;;8.90;63.50;;;;;;5073378;28;20214;-71
2024/02/04 05:49:52;;;;;;;6.25;3.85;;;8.90;63.40;;;;;;5073709;28;20461;-71
2024/02/04 05:52:22;;;;;;;7.70;3.83;;;8.90;63.40;;;;;;5073337;28;20197;-71
2024/02/04 05:54:51;;;;;;;6.75;4.85;;;9.00;63.40;;;;;;5073357;28;20189;-72
2024/02/04 05:57:21;;;;;;;5.35;4.78;;;9.00;63.30;;;;;;5087059;28;20270;-71
2024/02/04 05:59:52;;;;;;;4.75;2.97;;;9.00;63.00;;;;;;5093704;28;20243;-71
2024/02/04 06:02:19;;;;;;;6.20;3.40;;;9.00;63.00;;;;;;5093841;28;20261;-71
2024/02/04 06:04:51;;;;;;;5.15;3.10;;;9.00;62.90;;;;;;5093564;28;20250;-71
2024/02/04 06:07:21;;;;;;;7.60;3.65;;;9.00;62.60;;;;;;5093598;28;20205;-71
2024/02/04 06:09:48;;;;;;;5.25;3.70;;;9.00;62.50;;;;;;5093600;28;20210;-71
2024/02/04 06:12:16;;;;;;;9.50;4.88;;;9.00;62.40;;;;;;5092927;28;20185;-72
2024/02/04 06:14:44;;;;;;;12.13;4.18;;;9.00;61.80;;;;;;5093647;28;20192;-71
2024/02/04 06:17:13;;;;;;;8.13;4.10;;;9.10;61.70;;;;;;5093690;28;20295;-72
2024/02/04 06:19:40;;;;;;;8.00;3.72;;;9.20;61.60;;;;;;5094230;28;20209;-72
2024/02/04 06:22:08;;;;;;;5.40;3.60;;;9.20;61.40;;;;;;5093849;28;20190;-72
2024/02/04 06:24:36;;;;;;;10.77;3.35;;;9.20;61.00;;;;;;5093732;28;20180;-72
2024/02/04 06:27:05;;;;;;;9.07;3.53;;;9.30;60.80;;;;;;5097438;28;20213;-72
2024/02/04 06:29:32;;;;;;;8.30;3.00;;;9.30;59.80;;;;;;5097588;28;20326;-71
2024/02/04 06:32:01;;;;;;;10.73;3.50;;;9.40;59.30;;;;;;5097614;28;20190;-71
2024/02/04 06:34:30;;;;;;;8.63;2.95;;;9.40;58.90;;;;;;5096947;28;20182;-71
2024/02/04 06:36:57;;;;;;;11.50;3.35;;;9.50;58.40;;;;;;5097455;28;20276;-71
2024/02/04 06:39:24;;;;;;;8.65;3.13;;;9.60;58.30;;;;;;5097461;28;20193;-72
2024/02/04 06:41:51;;;;;;;6.43;3.08;;;9.70;58.00;;;;;;5097244;28;20641;-71
2024/02/04 06:44:19;;;;;;;7.38;2.88;;;9.80;57.70;;;;;;5097106;28;20221;-71
2024/02/04 06:46:46;;;;;;;15.63;3.35;;;9.80;57.40;;;;;;5096770;28;20205;-72
2024/02/04 06:49:18;;;;;;;11.20;2.65;;;9.90;57.00;;;;;;5093610;28;20214;-72
2024/02/04 06:51:47;;;;;;;6.63;2.90;;;10.00;55.80;;;;;;5096422;28;20191;-71
2024/02/04 06:54:15;;;;;;;9.20;3.33;;;10.10;55.50;;;;;;5096718;28;20189;-71
2024/02/04 06:56:42;;;;;;;13.15;4.35;;;10.20;55.00;;;;;;5096806;28;20190;-72
2024/02/04 06:59:10;;;;;;;7.40;2.88;;;10.20;54.90;;;;;;5096513;28;20646;-71
2024/02/04 07:01:37;;;;;;;9.75;2.40;;;10.30;54.50;;;;;;5096712;28;20191;-72
2024/02/04 07:04:04;;;;;;;9.52;3.20;;;10.30;54.60;;;;;;5095617;28;20185;-71
2024/02/04 07:06:31;;;;;;;14.05;2.60;;;10.40;54.30;;;;;;5096304;28;20663;-71
2024/02/04 07:09:00;;;;;;;7.72;3.95;;;10.50;54.30;;;;;;5096626;28;20642;-71
2024/02/04 07:11:33;;;;;;;7.55;3.00;;;10.60;54.10;;;;;;5096030;28;20243;-71
2024/02/04 07:14:00;;;;;;;6.75;2.47;;;10.60;53.80;;;;;;5094230;28;20751;-71
2024/02/04 07:16:28;;;;;;;12.02;2.53;;;10.70;53.60;;;;;;5095253;28;20194;-71
2024/02/04 07:19:04;;;;;;;6.78;3.05;;;10.70;53.30;;;;;;5095507;28;20228;-71
2024/02/04 07:21:31;;;;;;;10.57;2.05;;;10.80;53.10;;;;;;5095969;28;20264;-71
2024/02/04 07:24:00;;;;;;;8.75;2.70;;;10.90;53.00;;;;;;5091343;28;20192;-71
2024/02/04 07:26:31;;;;;;;12.43;3.10;;;11.00;52.80;;;;;;5095104;28;20287;-71
2024/02/04 07:29:02;;;;;;;5.20;2.13;;;11.00;52.50;;;;;;5089794;28;20257;-70
2024/02/04 07:31:37;;;;;;;9.38;2.92;;;11.10;52.00;;;;;;5075833;28;20174;-70
2024/02/04 07:34:07;;;;;;;10.27;2.55;;;11.20;51.90;;;;;;5075149;28;20181;-70
2024/02/04 07:36:37;;;;;;;8.55;2.70;;;11.10;51.90;;;;;;5076033;28;20549;-70
2024/02/04 07:39:06;;;;;;;7.22;2.30;;;11.20;51.90;;;;;;5095227;28;20528;-71
2024/02/04 07:41:34;;;;;;;15.82;2.72;;;11.30;51.60;;;;;;5094635;28;20338;-71
2024/02/04 07:44:04;;;;;;;6.72;2.72;;;11.30;51.70;;;;;;5095119;28;20189;-71
2024/02/04 07:46:32;;;;;;;5.93;2.65;;;11.30;52.00;;;;;;5095126;28;20213;-71
2024/02/04 07:48:59;;;;;;;8.30;2.58;;;11.30;52.00;;;;;;5091988;28;20181;-71
2024/02/04 07:51:26;;;;;;;10.82;3.97;;;11.30;52.30;;;;;;5087978;28;20721;-70
2024/02/04 07:53:53;;;;;;;8.32;2.80;;;11.30;52.20;;;;;;5074588;28;20182;-71
2024/02/04 07:56:25;;;;;;;11.82;2.97;;;11.30;52.10;;;;;;5074914;28;20185;-71
2024/02/04 07:58:53;;;;;;;7.35;3.10;;;11.40;51.70;;;;;;5074859;28;20585;-71
2024/02/04 08:01:21;;;;;;;12.75;2.55;;;11.50;51.50;;;;;;5074973;28;20221;-71
2024/02/04 08:03:53;;;;;;;12.30;2.60;;;11.50;51.50;;;;;;5074129;28;20249;-70
2024/02/04 08:06:25;;;;;;;4.72;1.75;;;11.50;51.30;;;;;;5074355;28;20622;-71
2024/02/04 08:08:58;;;;;;;7.93;2.30;;;11.50;51.30;;;;;;5074342;28;20200;-71
2024/02/04 08:11:27;;;;;;;4.13;2.20;;;11.60;51.10;;;;;;5074880;28;20170;-71
2024/02/04 08:13:54;;;;;;;6.40;3.53;;;11.70;51.10;;;;;;5093945;28;20462;-71
2024/02/04 08:16:21;;;;;;;6.53;2.17;;;11.80;51.10;;;;;;5094744;28;20234;-71
2024/02/04 08:18:49;;;;;;;7.00;2.10;;;11.90;50.80;;;;;;5093573;28;20224;-70
2024/02/04 08:21:19;;;;;;;6.20;2.72;;;12.00;50.40;;;;;;5094056;28;20521;-71
2024/02/04 08:23:47;;;;;;;6.93;2.53;;;12.10;50.20;;;;;;5094172;28;20177;-71
2024/02/04 08:26:14;;;;;;;6.47;2.65;;;12.20;50.00;;;;;;5094341;28;20188;-71
2024/02/04 08:28:44;;;;;;;8.53;2.53;;;12.20;49.80;;;;;;5094151;28;20675;-71
2024/02/04 08:31:11;;;;;;;17.37;3.20;;;12.30;49.70;;;;;;5094336;28;20439;-71
2024/02/04 08:33:43;;;;;;;6.23;2.00;;;12.40;49.40;;;;;;5093622;28;20435;-70
2024/02/04 08:36:18;;;;;;;15.73;3.13;;;12.50;49.20;;;;;;5093910;28;20435;-71
2024/02/04 08:38:51;;;;;;;10.30;2.23;;;12.60;48.80;;;;;;5093152;28;20904;-71
2024/02/04 08:41:19;;;;;;;7.30;2.27;;;12.80;48.40;;;;;;5090423;28;20455;-70
2024/02/04 08:43:47;;;;;;;5.10;2.23;;;13.00;48.10;;;;;;5112759;28;20907;-71
2024/02/04 08:46:22;;;;;;;3.73;2.00;;;13.20;47.60;;;;;;5113914;28;20545;-71
2024/02/04 08:48:51;;;;;;;11.73;2.67;;;13.40;47.10;;;;;;5098530;28;20647;-71
2024/02/04 08:51:21;;;;;;;4.53;1.80;;;13.60;46.60;;;;;;5092630;28;20457;-71
2024/02/04 08:54:02;;;;;;;15.60;2.87;;;13.90;46.60;;;;;;5091340;28;20427;-71
2024/02/04 08:56:34;;;;;;;7.13;2.00;;;14.20;46.80;;;;;;5093356;28;20442;-72
2024/02/04 08:59:09;;;;;;;7.77;2.43;;;14.70;45.40;;;;;;5093707;28;20430;-71
2024/02/04 09:01:39;;;;;;;12.77;2.67;;;15.10;44.00;;;;;;5076087;28;20966;-72
2024/02/04 09:04:14;;;;;;;6.93;2.23;;;15.50;43.60;;;;;;5073417;28;20497;-71
2024/02/04 09:06:44;;;;;;;6.13;2.00;;;15.90;42.90;;;;;;5073216;28;20424;-71
2024/02/04 09:09:14;;;;;;;5.50;2.00;;;16.40;41.60;;;;;;5079330;28;20427;-72
2024/02/04 09:11:42;;;;;;;10.73;2.27;;;16.60;39.50;;;;;;5093481;28;20435;-71
2024/02/04 09:14:12;;;;;;;9.70;2.20;;;16.70;39.00;;;;;;5092936;28;20985;-71
2024/02/04 09:16:39;;;;;;;10.73;2.07;;;16.90;38.30;;;;;;5092494;28;20526;-72
2024/02/04 09:19:07;;;;;;;6.50;1.93;;;17.00;38.10;;;;;;5093708;28;20458;-72
2024/02/04 09:21:45;;;;;;;8.20;3.93;;;17.20;37.50;;;;;;5093162;28;21012;-72
2024/02/04 09:24:12;;;;;;;9.30;2.03;;;17.20;36.90;;;;;;5092832;28;20474;-72
2024/02/04 09:26:44;;;;;;;5.00;2.40;;;17.20;36.50;;;;;;5092973;28;20463;-72
2024/02/04 09:29:13;;;;;;;5.93;2.23;;;17.20;36.90;;;;;;5093503;28;20521;-72
2024/02/04 09:31:41;;;;;;;9.20;2.37;;;17.20;36.60;;;;;;5074640;28;20473;-71
2024/02/04 09:34:14;;;;;;;5.73;2.00;;;17.20;36.50;;;;;;5072877;28;20438;-72
2024/02/04 09:36:43;;;;;;;7.40;2.00;;;17.10;36.30;;;;;;5072720;28;20425;-71
2024/02/04 09:39:17;;;;;;;4.70;1.40;;;17.10;36.60;;;;;;5072987;28;20758;-72
2024/02/04 09:41:45;;;;;;;4.23;1.63;;;17.20;36.50;;;;;;5073057;28;20425;-72
2024/02/04 09:44:18;;;;;;;4.60;2.07;;;17.30;36.70;;;;;;5073164;28;20438;-71
2024/02/04 09:46:49;;;;;;;5.23;1.53;;;17.50;36.70;;;;;;5072578;28;20452;-71
2024/02/04 09:49:16;;;;;;;7.50;2.53;;;17.60;35.60;;;;;;5072921;28;20424;-72
2024/02/04 09:51:45;;;;;;;12.23;2.10;;;17.80;35.10;;;;;;5088447;28;20426;-72
2024/02/04 09:54:19;;;;;;;12.40;4.63;;;17.80;34.60;;;;;;5093001;28;20754;-72
2024/02/04 09:56:50;;;;;;;8.10;1.60;;;17.90;34.30;;;;;;5077951;28;20446;-72
2024/02/04 09:59:19;;;;;;;9.07;2.77;;;17.90;34.90;;;;;;5072423;28;20493;-71
2024/02/04 10:01:48;;;;;;;10.23;2.17;;;18.10;35.00;;;;;;5088556;28;20454;-71
2024/02/04 10:04:28;;;;;;;5.30;2.03;;;18.30;34.70;;;;;;5091121;28;20529;-72
2024/02/04 10:06:55;;;;;;;4.67;1.73;;;18.50;34.10;;;;;;5092148;28;20992;-71
2024/02/04 10:09:29;;;;;;;8.63;2.20;;;18.80;34.00;;;;;;5093075;28;20458;-72
2024/02/04 10:11:58;;;;;;;4.97;1.70;;;19.10;33.40;;;;;;5076151;28;20776;-71
2024/02/04 10:14:28;;;;;;;9.10;1.60;;;19.30;32.40;;;;;;5081312;28;20442;-72
2024/02/04 10:16:55;;;;;;;6.60;2.00;;;19.40;32.20;;;;;;5090652;28;20521;-72
2024/02/04 10:19:25;;;;;;;6.33;1.70;;;19.40;31.40;;;;;;5089292;28;20534;-72
2024/02/04 10:22:00;;;;;;;9.10;2.50;;;19.30;31.70;;;;;;5092071;28;20441;-71
2024/02/04 10:24:27;;;;;;;11.87;2.17;;;19.30;31.80;;;;;;5092017;28;20419;-72
2024/02/04 10:26:54;;;;;;;6.17;1.87;;;19.40;31.60;;;;;;5092142;28;20458;-72
2024/02/04 10:29:21;;;;;;;7.03;2.40;;;19.40;31.60;;;;;;5091770;28;20964;-72
2024/02/04 10:31:53;;;;;;;3.40;1.57;;;19.50;32.00;;;;;;5092161;28;20517;-72
2024/02/04 10:34:21;;;;;;;6.33;2.47;;;19.80;31.70;;;;;;5092833;28;20509;-72
2024/02/04 10:36:48;;;;;;;8.13;2.77;;;20.30;31.10;;;;;;5092528;28;20962;-72
2024/02/04 10:39:23;;;;;;;11.97;2.33;;;20.60;30.00;;;;;;5092686;28;20526;-72
2024/02/04 10:42:01;;;;;;;8.17;1.70;;;20.70;29.90;;;;;;5092758;28;20532;-72
2024/02/04 10:44:34;;;;;;;6.90;1.70;;;20.90;30.10;;;;;;5092743;28;20821;-72
2024/02/04 10:47:10;;;;;;;8.53;2.50;;;21.30;29.50;;;;;;5091588;28;20427;-72
2024/02/04 10:49:40;;;;;;;9.20;2.50;;;21.70;29.40;;;;;;5092361;28;20505;-72
2024/02/04 10:52:08;;;;;;;4.60;1.67;;;21.90;28.30;;;;;;5092157;28;20427;-72
2024/02/04 10:54:39;;;;;;;9.43;1.80;;;22.00;28.40;;;;;;5092183;28;20435;-72
2024/02/04 10:57:14;;;;;;;5.83;1.70;;;21.90;27.70;;;;;;5091525;28;20515;-72
2024/02/04 10:59:43;;;;;;;9.57;1.93;;;21.90;27.30;;;;;;5092156;28;20743;-72
2024/02/04 11:02:16;;;;;;;5.37;1.63;;;21.80;27.70;;;;;;5092555;28;20549;-72
2024/02/04 11:04:44;;;;;;;14.60;2.70;;;21.90;27.40;;;;;;5088186;28;20431;-72
2024/02/04 11:07:13;;;;;;;9.47;2.13;;;22.20;27.90;;;;;;5091685;28;20474;-72
2024/02/04 11:09:41;;;;;;;9.87;1.90;;;22.40;27.70;;;;;;5092598;28;20432;-72
2024/02/04 11:12:17;;;;;;;4.73;1.70;;;22.70;26.60;;;;;;5092906;28;20840;-73
2024/02/04 11:14:51;;;;;;;6.53;2.20;;;22.90;26.10;;;;;;5095801;28;20770;-72
2024/02/04 11:17:38;;;;;;;7.90;1.80;;;23.00;25.90;;;;;;5095205;28;20518;-72
2024/02/04 11:20:24;;;;;;;4.43;1.80;;;22.90;25.70;;;;;;5095863;28;20542;-72
2024/02/04 11:23:17;;;;;;;8.07;2.47;;;22.50;25.60;;;;;;5095172;28;20447;-72
2024/02/04 11:25:49;;;;;;;9.10;2.20;;;22.20;25.70;;;;;;5084767;28;20515;-72
2024/02/04 11:28:18;;;;;;;5.53;1.80;;;22.00;25.90;;;;;;5079981;28;20537;-72
2024/02/04 11:30:46;;;;;;;6.40;1.50;;;21.80;26.10;;;;;;5095896;28;20522;-71
2024/02/04 11:33:19;;;;;;;8.37;1.60;;;21.50;26.80;;;;;;5094937;28;20469;-71
2024/02/04 11:35:46;;;;;;;11.03;2.17;;;21.20;26.80;;;;;;5095746;28;20850;-72
2024/02/04 11:38:18;;;;;;;6.30;2.23;;;21.10;27.30;;;;;;5095219;28;20791;-72
2024/02/04 11:40:47;;;;;;;6.73;2.67;;;21.00;26.70;;;;;;5095686;28;20415;-71
2024/02/04 11:43:16;;;;;;;4.90;1.63;;;21.00;27.00;;;;;;5078296;28;20516;-72
2024/02/04 11:45:43;;;;;;;4.60;1.80;;;21.10;27.60;;;;;;5074863;28;20523;-71
2024/02/04 11:48:16;;;;;;;11.13;2.50;;;21.40;27.20;;;;;;5074916;28;20990;-72
2024/02/04 11:50:53;;;;;;;6.40;2.00;;;21.50;27.20;;;;;;5074993;28;20462;-72
2024/02/04 11:53:20;;;;;;;5.20;1.97;;;21.70;26.70;;;;;;5091507;28;20825;-72
2024/02/04 11:55:47;;;;;;;5.10;1.80;;;22.30;27.30;;;;;;5083447;28;20527;-71
2024/02/04 11:58:14;;;;;;;7.80;1.87;;;23.00;26.50;;;;;;5074700;28;20440;-72
2024/02/04 12:00:45;;;;;;;11.93;2.33;;;23.70;26.20;;;;;;5074983;28;20523;-72
2024/02/04 12:03:12;;;;;;;8.23;1.60;;;24.30;25.40;;;;;;5078090;28;20801;-72
2024/02/04 12:05:45;;;;;;;5.10;2.00;;;24.70;25.10;;;;;;5088853;28;20514;-72
2024/02/04 12:08:13;;;;;;;6.20;1.70;;;25.10;24.40;;;;;;5095045;28;20451;-72
2024/02/04 12:10:42;;;;;;;8.93;2.73;;;25.20;23.50;;;;;;5094875;28;20514;-72
2024/02/04 12:13:09;;;;;;;9.00;1.80;;;24.80;22.90;;;;;;5095038;28;20514;-72
2024/02/04 12:15:36;;;;;;;3.43;1.40;;;24.20;23.20;;;;;;5089880;28;20515;-72
2024/02/04 12:18:07;;;;;;;4.77;2.03;;;23.70;23.80;;;;;;5074143;28;20554;-72
2024/02/04 12:20:34;;;;;;;5.17;2.10;;;23.10;24.30;;;;;;5074406;28;21076;-72
2024/02/04 12:23:04;;;;;;;5.60;1.40;;;22.60;24.20;;;;;;5073710;28;20436;-72
2024/02/04 12:25:31;;;;;;;4.00;1.77;;;22.00;24.60;;;;;;5087198;28;21015;-72
2024/02/04 12:27:59;;;;;;;7.00;1.50;;;21.50;25.70;;;;;;5093381;28;20455;-72
2024/02/04 12:30:27;;;;;;;5.23;1.60;;;21.10;25.80;;;;;;5093258;28;20459;-71
2024/02/04 12:32:58;;;;;;;4.33;1.60;;;20.70;26.00;;;;;;5094299;28;20427;-72
2024/02/04 12:35:25;;;;;;;4.00;1.87;;;20.40;26.70;;;;;;5094237;28;20431;-72
2024/02/04 12:37:53;;;;;;;7.37;2.50;;;20.00;27.20;;;;;;5079479;28;20547;-72
2024/02/04 12:40:24;;;;;;;4.83;1.70;;;19.70;27.50;;;;;;5073997;28;20464;-72
2024/02/04 12:42:56;;;;;;;6.27;1.70;;;19.40;27.70;;;;;;5074288;28;20439;-72
2024/02/04 12:45:23;;;;;;;5.63;2.37;;;19.20;28.10;;;;;;5073723;28;20494;-72
2024/02/04 12:47:51;;;;;;;4.77;1.43;;;19.00;28.30;;;;;;5088435;28;20519;-72
2024/02/04 12:50:19;;;;;;;4.83;1.70;;;18.70;28.60;;;;;;5094499;28;20431;-72
2024/02/04 12:52:46;;;;;;;6.20;2.90;;;18.60;28.80;;;;;;5093898;28;20465;-72
2024/02/04 12:55:28;;;;;;;5.03;2.53;;;18.40;28.70;;;;;;5094026;28;20534;-72
2024/02/04 12:58:04;;;;;;;5.63;1.53;;;18.20;29.00;;;;;;5094163;28;20932;-71
2024/02/04 13:00:31;;;;;;;4.37;1.30;;;18.10;29.30;;;;;;5093303;28;20427;-72
2024/02/04 13:02:58;;;;;;;4.67;1.33;;;18.00;29.60;;;;;;5078530;28;20432;-71
2024/02/04 13:05:26;;;;;;;3.53;1.83;;;17.90;29.50;;;;;;5073211;28;20523;-72